Pagina principale
METAR-TAF:

METAR-TAF

Aeroporti :

Aeroporto Internazionale di Teheran-Mehrabad

Teheran, Iran

latitudine: 35-41N, longitudine: 051-21E, altezza: 1204 m

Osservazione

Il bollettino è stato emesso 33 minuti fa, alle 08:30 UTC
Vento 8 kt da sud/sud-est
Temperature 37°C
Umidità 11%
Pressione 1008 hPa
Visibilità 10 km o più
nessuna nube inferiore a 1500 m e nessun cumulonembo

METAR: OIII 220830Z 15008KT CAVOK 37/02 Q1008 A2977

Ora: 13:33 (09:03 UTC)

Previsione

Il bollettino è stato emesso 3 ore e 33 minuti fa, alle 05:30 UTC
Previsione valida dal 22 alle 06 UTC al 23 alle 12 UTC
Vento 6 kt da est/sud-est
Visibilità: 8000 m
Poco nuvoloso ad un'altezza di 4000 ft
Temporaneamente
dal 22 alle 08 UTC al 22 alle 16 UTC
Vento 16 kt da sud-est
Temporaneamente
dal 23 alle 09 UTC al 23 alle 12 UTC
Vento 16 kt da est/sud-est con raffiche fino a 25 kt

TAF: OIII 220530Z 2206/2312 12003MPS 8000 FEW040 TEMPO 2208/2216 14008MPS TEMPO 2309/2312 12008G13MPS

Osservazioni e previsioni meteorologiche di più di 4000 aeroporti (messaggi METAR e TAF).

Le stazioni disponibili sono rappresentate dai dischi gialli e rossi sulla carta.

Puntare il mouse per vedere il nome della stazione.

Clicca sopra per visualizzare le osservazioni e previsioni meteorologiche.

Per cambiare la mappa : fare clic sui pulsanti verdi con una croce nera per ingrandire, il pulsante verde con un trattino per diminuire, o sulla freccia verde per le mappe adiacenti.


METAR-TAF: